Time;durP1;ratioP1;P1;durP2;ratioP2;P2;SDS_P1;SDS_P2;PMS_P1;PMS_P2;Temp;Humidity;BMP_temperature;BMP_pressure;BME280_temperature;BME280_humidity;BME280_pressure;Samples;Min_cycle;Max_cycle;Signal;HPM_P1;HPM_P2
2022/12/05 00:01:24;;;;;;;29.75;15.98;;;4.50;99.90;;;;;;4971244;28;20047;-69
2022/12/05 00:03:52;;;;;;;30.63;22.27;;;4.50;99.90;;;;;;4961441;28;20042;-67
2022/12/05 00:06:21;;;;;;;32.50;18.15;;;4.60;99.90;;;;;;4974821;28;20134;-67
2022/12/05 00:08:47;;;;;;;33.70;17.38;;;4.60;99.90;;;;;;4991919;28;20026;-68
2022/12/05 00:11:15;;;;;;;29.33;21.15;;;4.50;99.90;;;;;;4991247;28;20054;-67
2022/12/05 00:13:42;;;;;;;29.85;16.50;;;4.60;99.90;;;;;;4992166;28;20042;-68
2022/12/05 00:16:09;;;;;;;29.55;15.82;;;4.60;99.90;;;;;;4991934;28;20046;-67
2022/12/05 00:18:36;;;;;;;29.10;15.77;;;4.60;99.90;;;;;;4974496;28;20101;-68
2022/12/05 00:21:02;;;;;;;27.58;15.05;;;4.60;99.90;;;;;;4991733;28;20054;-67
2022/12/05 00:23:28;;;;;;;28.88;16.15;;;4.60;99.90;;;;;;4978045;28;20522;-69
2022/12/05 00:25:54;;;;;;;28.45;15.82;;;4.60;99.90;;;;;;4995347;28;20109;-68
2022/12/05 00:28:19;;;;;;;28.67;15.25;;;4.50;99.90;;;;;;4977821;28;20050;-67
2022/12/05 00:30:46;;;;;;;28.45;17.45;;;4.50;99.90;;;;;;4977741;28;20176;-70
2022/12/05 00:33:11;;;;;;;29.73;20.45;;;4.50;99.90;;;;;;4995017;28;20386;-68
2022/12/05 00:35:38;;;;;;;27.08;15.57;;;4.60;99.90;;;;;;4977809;28;20142;-68
2022/12/05 00:38:04;;;;;;;27.90;15.40;;;4.60;99.90;;;;;;4969843;28;20534;-68
2022/12/05 00:40:29;;;;;;;28.80;15.63;;;4.60;99.90;;;;;;4977617;28;20046;-68
2022/12/05 00:42:57;;;;;;;27.40;15.82;;;4.60;99.90;;;;;;4977332;28;20034;-67
2022/12/05 00:45:22;;;;;;;27.48;15.80;;;4.60;99.90;;;;;;4995281;28;20101;-68
2022/12/05 00:47:48;;;;;;;26.63;16.13;;;4.50;99.90;;;;;;4977256;28;20038;-70
2022/12/05 00:50:14;;;;;;;27.98;19.77;;;4.60;99.90;;;;;;4977853;28;20412;-70
2022/12/05 00:52:41;;;;;;;27.23;14.73;;;4.60;99.90;;;;;;4994432;28;20042;-70
2022/12/05 00:55:07;;;;;;;22.88;14.43;;;4.60;99.90;;;;;;4977212;28;20038;-67
2022/12/05 00:57:33;;;;;;;24.63;14.85;;;4.70;99.90;;;;;;4977460;28;20054;-68
2022/12/05 00:59:58;;;;;;;22.80;14.30;;;4.70;99.90;;;;;;4977560;28;20057;-68
2022/12/05 01:02:24;;;;;;;26.08;18.98;;;4.60;99.90;;;;;;4977001;28;20030;-68
2022/12/05 01:04:51;;;;;;;24.55;13.90;;;4.70;99.90;;;;;;4977591;28;20455;-68
2022/12/05 01:07:18;;;;;;;23.38;13.30;;;4.70;99.90;;;;;;4977029;28;20086;-67
2022/12/05 01:09:43;;;;;;;21.25;12.13;;;4.70;99.90;;;;;;4977400;28;20443;-70
2022/12/05 01:12:09;;;;;;;23.70;17.38;;;4.80;99.90;;;;;;4976634;28;20048;-68
2022/12/05 01:14:36;;;;;;;22.40;16.92;;;4.80;99.90;;;;;;4977706;28;20408;-68
2022/12/05 01:17:01;;;;;;;24.10;13.80;;;4.80;99.90;;;;;;4976787;28;20133;-67
2022/12/05 01:19:30;;;;;;;24.55;17.40;;;4.90;99.90;;;;;;5003345;28;20129;-67
2022/12/05 01:21:56;;;;;;;24.85;13.95;;;4.80;99.90;;;;;;4965366;28;20030;-68
2022/12/05 01:24:23;;;;;;;22.33;13.40;;;4.80;99.90;;;;;;4973783;28;20059;-68
2022/12/05 01:26:49;;;;;;;22.90;17.80;;;4.80;99.90;;;;;;4970626;28;20065;-69
2022/12/05 01:29:17;;;;;;;22.20;13.43;;;4.90;99.90;;;;;;4976327;28;20455;-69
2022/12/05 01:31:43;;;;;;;22.92;13.45;;;4.90;99.90;;;;;;4976930;28;20138;-68
2022/12/05 01:34:13;;;;;;;22.08;12.57;;;4.90;99.90;;;;;;4973123;28;20125;-67
2022/12/05 01:36:39;;;;;;;23.27;13.95;;;4.90;99.90;;;;;;4961456;28;20047;-68
2022/12/05 01:39:06;;;;;;;23.20;13.55;;;4.90;99.90;;;;;;4975083;28;20124;-68
2022/12/05 01:41:38;;;;;;;24.05;15.13;;;5.00;99.90;;;;;;4976864;28;20038;-67
2022/12/05 01:44:06;;;;;;;24.13;14.18;;;4.90;99.90;;;;;;4976421;28;20038;-67
2022/12/05 01:46:35;;;;;;;24.85;13.65;;;4.90;99.90;;;;;;4976779;28;20430;-68
2022/12/05 01:49:15;;;;;;;26.20;15.05;;;5.00;99.90;;;;;;4972833;28;20043;-67
2022/12/05 01:51:52;;;;;;;21.80;13.60;;;5.00;99.90;;;;;;4974542;28;20097;-67
2022/12/05 01:54:21;;;;;;;27.67;20.08;;;4.90;99.90;;;;;;4970217;28;20106;-68
2022/12/05 01:56:51;;;;;;;25.35;14.68;;;4.90;99.90;;;;;;4971061;28;20073;-68
2022/12/05 01:59:20;;;;;;;25.63;15.75;;;4.90;99.90;;;;;;4973114;28;20468;-68
2022/12/05 02:01:45;;;;;;;28.25;16.05;;;4.90;99.90;;;;;;4972911;28;20042;-68
2022/12/05 02:04:11;;;;;;;27.48;15.15;;;4.90;99.90;;;;;;4973287;28;20558;-67
2022/12/05 02:06:38;;;;;;;25.75;15.32;;;4.80;99.90;;;;;;4957380;28;20038;-67
2022/12/05 02:09:04;;;;;;;27.95;15.75;;;4.90;99.90;;;;;;4972941;28;20050;-67
2022/12/05 02:12:01;;;;;;;28.50;16.75;;;4.90;99.90;;;;;;4971507;28;20478;-68
2022/12/05 02:14:36;;;;;;;26.48;15.52;;;4.90;99.90;;;;;;4973082;28;20069;-67
2022/12/05 02:17:12;;;;;;;28.52;16.73;;;5.00;99.90;;;;;;4955962;28;20084;-67
2022/12/05 02:19:49;;;;;;;29.33;16.88;;;5.00;99.90;;;;;;4982740;28;20362;-68
2022/12/05 02:22:29;;;;;;;28.88;18.38;;;4.90;99.90;;;;;;4975982;28;20117;-67
2022/12/05 02:25:30;;;;;;;26.90;15.85;;;5.00;99.90;;;;;;4972810;28;20113;-67
2022/12/05 02:28:33;;;;;;;27.92;15.75;;;5.00;99.90;;;;;;4930226;28;20058;-68
2022/12/05 02:31:31;;;;;;;31.80;21.95;;;4.90;99.90;;;;;;4972651;28;20129;-68
2022/12/05 02:34:15;;;;;;;31.33;17.60;;;5.00;99.90;;;;;;4972388;28;20117;-68
2022/12/05 02:37:33;;;;;;;28.65;16.35;;;4.90;99.90;;;;;;4966217;28;20043;-68
2022/12/05 02:40:36;;;;;;;31.55;17.83;;;4.90;99.90;;;;;;4879423;29;20041;-68
2022/12/05 02:43:14;;;;;;;32.50;17.92;;;4.90;99.90;;;;;;4851011;29;20082;-68
2022/12/05 02:45:43;;;;;;;30.85;17.73;;;5.00;99.90;;;;;;4952508;28;20089;-67
2022/12/05 02:48:11;;;;;;;33.88;18.33;;;4.90;99.90;;;;;;4968951;28;20039;-67
2022/12/05 02:50:39;;;;;;;30.98;18.10;;;4.90;99.90;;;;;;4972309;28;20141;-68
2022/12/05 02:53:12;;;;;;;33.53;18.17;;;4.90;99.90;;;;;;4955578;28;20054;-68
2022/12/05 02:55:40;;;;;;;30.42;18.02;;;5.00;99.90;;;;;;4972636;28;20070;-69
2022/12/05 02:58:11;;;;;;;33.65;23.27;;;4.90;99.90;;;;;;4971836;28;20070;-67
2022/12/05 03:00:39;;;;;;;33.35;23.80;;;5.00;99.90;;;;;;4972259;28;20142;-69
2022/12/05 03:03:12;;;;;;;32.35;17.17;;;5.00;99.90;;;;;;4971551;28;20153;-68
2022/12/05 03:06:00;;;;;;;33.37;23.57;;;5.00;99.90;;;;;;4972921;28;20043;-69
2022/12/05 03:08:33;;;;;;;33.72;23.92;;;5.00;99.90;;;;;;4973793;28;20325;-67
2022/12/05 03:11:01;;;;;;;32.83;18.30;;;5.00;99.90;;;;;;4971407;28;20318;-69
2022/12/05 03:13:38;;;;;;;32.40;17.95;;;5.00;99.90;;;;;;4973410;28;20047;-67
2022/12/05 03:16:17;;;;;;;35.47;19.02;;;5.00;99.90;;;;;;4972129;28;20078;-68
2022/12/05 03:19:11;;;;;;;31.15;17.50;;;5.00;99.90;;;;;;4971754;28;20047;-68
2022/12/05 03:21:44;;;;;;;35.42;19.48;;;5.00;99.90;;;;;;4952742;29;20071;-68
2022/12/05 03:24:13;;;;;;;35.40;19.40;;;5.00;99.90;;;;;;4955709;28;20142;-68
2022/12/05 03:27:04;;;;;;;36.42;20.55;;;5.10;99.90;;;;;;4956650;28;20051;-67
2022/12/05 03:29:43;;;;;;;35.53;18.98;;;5.00;99.90;;;;;;4971660;28;20045;-68
2022/12/05 03:32:23;;;;;;;41.13;27.05;;;5.10;99.90;;;;;;4971391;28;20042;-69
2022/12/05 03:34:54;;;;;;;34.10;19.75;;;5.00;99.90;;;;;;4972046;28;20043;-67
2022/12/05 03:37:50;;;;;;;37.10;19.27;;;5.10;99.90;;;;;;4963138;28;20049;-67
2022/12/05 03:40:31;;;;;;;38.53;20.67;;;5.10;99.90;;;;;;4971856;28;20058;-69
2022/12/05 03:43:08;;;;;;;42.58;27.17;;;5.10;99.90;;;;;;4971473;28;20334;-67
2022/12/05 03:45:45;;;;;;;39.70;27.55;;;5.10;99.90;;;;;;4971611;28;20038;-67
2022/12/05 03:48:28;;;;;;;42.10;20.08;;;5.10;99.90;;;;;;4971063;28;20038;-68
2022/12/05 03:50:57;;;;;;;38.45;18.45;;;5.10;99.90;;;;;;4971696;28;20566;-68
2022/12/05 03:53:30;;;;;;;38.80;20.33;;;5.10;99.90;;;;;;4952293;28;20190;-68
2022/12/05 03:56:09;;;;;;;34.97;18.45;;;5.10;99.90;;;;;;4959724;28;20142;-68
2022/12/05 03:58:52;;;;;;;39.25;27.40;;;5.10;99.90;;;;;;4973526;28;20050;-67
2022/12/05 04:01:20;;;;;;;41.03;28.55;;;5.10;99.90;;;;;;4974831;28;20101;-67
2022/12/05 04:04:01;;;;;;;41.03;27.98;;;5.20;99.90;;;;;;4974704;28;20039;-68
2022/12/05 04:06:32;;;;;;;33.22;18.67;;;5.20;99.90;;;;;;4976647;28;20051;-67
2022/12/05 04:09:03;;;;;;;37.00;19.55;;;5.20;99.90;;;;;;4975645;28;20035;-67
2022/12/05 04:11:32;;;;;;;41.17;27.05;;;5.10;99.90;;;;;;4974047;28;20042;-68
2022/12/05 04:14:04;;;;;;;36.63;19.63;;;5.20;99.90;;;;;;4975077;28;20035;-68
2022/12/05 04:17:03;;;;;;;37.33;25.88;;;5.30;99.90;;;;;;4975695;28;20126;-68
2022/12/05 04:22:38;;;;;;;32.88;17.63;;;5.10;99.90;;;;;;4963601;28;20070;-68
2022/12/05 04:28:32;;;;;;;36.63;23.75;;;5.20;99.90;;;;;;4979566;28;20038;-68
2022/12/05 04:31:11;;;;;;;36.92;19.45;;;5.30;99.90;;;;;;4975173;28;20057;-68
2022/12/05 04:33:40;;;;;;;34.58;19.35;;;5.30;99.90;;;;;;4976349;28;20038;-68
2022/12/05 04:36:14;;;;;;;37.78;24.13;;;5.20;99.90;;;;;;4974748;28;20097;-69
2022/12/05 04:38:56;;;;;;;31.42;17.02;;;5.20;99.90;;;;;;4969669;28;20050;-67
2022/12/05 04:41:35;;;;;;;29.60;16.73;;;5.30;99.90;;;;;;4974612;28;20514;-68
2022/12/05 04:44:06;;;;;;;31.05;21.10;;;5.20;99.90;;;;;;4958860;28;20043;-67
2022/12/05 04:46:33;;;;;;;27.90;20.23;;;5.30;99.90;;;;;;4974573;28;20057;-68
2022/12/05 04:49:07;;;;;;;24.27;18.95;;;5.30;99.90;;;;;;4974185;28;20035;-68
2022/12/05 04:51:35;;;;;;;25.50;15.10;;;5.40;99.90;;;;;;4975461;28;20039;-68
2022/12/05 04:54:14;;;;;;;22.80;13.63;;;5.40;99.90;;;;;;4974355;28;20532;-67
2022/12/05 04:56:42;;;;;;;22.00;12.88;;;5.30;99.90;;;;;;4975886;28;20053;-68
2022/12/05 04:59:09;;;;;;;24.05;13.65;;;5.40;99.90;;;;;;4973886;28;20047;-68
2022/12/05 05:01:50;;;;;;;25.08;15.65;;;5.30;99.90;;;;;;4974970;28;20067;-68
2022/12/05 05:04:24;;;;;;;22.63;16.70;;;5.40;99.90;;;;;;4975630;28;20373;-68
2022/12/05 05:06:50;;;;;;;22.20;13.45;;;5.50;99.90;;;;;;4974211;28;20075;-68
2022/12/05 05:09:16;;;;;;;21.25;12.98;;;5.40;99.90;;;;;;4974951;28;20043;-68
2022/12/05 05:11:41;;;;;;;21.73;13.52;;;5.30;99.90;;;;;;4973273;28;20089;-67
2022/12/05 05:14:08;;;;;;;19.00;15.38;;;5.40;99.90;;;;;;4974155;28;20062;-68
2022/12/05 05:16:38;;;;;;;19.30;12.13;;;5.40;99.90;;;;;;4974503;28;20057;-69
2022/12/05 05:19:05;;;;;;;19.88;11.98;;;5.40;99.90;;;;;;4973725;28;20428;-69
2022/12/05 05:21:34;;;;;;;17.98;14.43;;;5.40;99.90;;;;;;4975064;28;20050;-69
2022/12/05 05:24:00;;;;;;;19.98;11.95;;;5.50;99.90;;;;;;4974023;28;20093;-68
2022/12/05 05:26:28;;;;;;;20.25;12.50;;;5.60;99.90;;;;;;4973954;28;20432;-68
2022/12/05 05:28:53;;;;;;;18.75;11.65;;;5.40;99.90;;;;;;4973146;28;20067;-67
2022/12/05 05:31:20;;;;;;;15.32;10.00;;;5.40;99.90;;;;;;4973290;28;20097;-68
2022/12/05 05:33:50;;;;;;;15.90;12.63;;;5.50;99.90;;;;;;4973138;28;20444;-68
2022/12/05 05:36:17;;;;;;;14.65;9.57;;;5.50;99.90;;;;;;4970582;28;20058;-69
2022/12/05 05:38:46;;;;;;;15.15;10.57;;;5.60;99.90;;;;;;4967233;28;20105;-67
2022/12/05 05:41:28;;;;;;;14.63;9.48;;;5.60;99.90;;;;;;4973468;28;20078;-68
2022/12/05 05:43:55;;;;;;;15.60;9.43;;;5.60;99.90;;;;;;4973755;28;20046;-67
2022/12/05 05:46:23;;;;;;;14.48;9.38;;;5.60;99.90;;;;;;4973557;28;20035;-68
2022/12/05 05:48:50;;;;;;;16.00;12.20;;;5.60;99.90;;;;;;4965909;28;20039;-68
2022/12/05 05:51:17;;;;;;;13.95;9.18;;;5.70;99.90;;;;;;4955253;28;20039;-69
2022/12/05 05:53:44;;;;;;;12.40;10.73;;;5.60;99.90;;;;;;4955568;28;20121;-70
2022/12/05 05:56:12;;;;;;;11.90;8.07;;;5.70;99.90;;;;;;4951699;28;20455;-68
2022/12/05 05:58:39;;;;;;;12.05;10.07;;;5.70;99.90;;;;;;4962295;28;20579;-68
2022/12/05 06:01:10;;;;;;;12.82;9.05;;;5.70;99.90;;;;;;4953441;28;20142;-68
2022/12/05 06:03:38;;;;;;;10.55;7.57;;;5.60;99.90;;;;;;4953781;28;20085;-69
2022/12/05 06:06:08;;;;;;;10.80;8.48;;;5.60;99.90;;;;;;4970872;28;20530;-69
2022/12/05 06:08:37;;;;;;;9.70;7.07;;;5.70;99.90;;;;;;4969702;28;20043;-68
2022/12/05 06:11:09;;;;;;;9.57;6.90;;;5.60;99.90;;;;;;4963559;28;20142;-68
2022/12/05 06:13:37;;;;;;;8.95;7.45;;;5.70;99.90;;;;;;4969693;28;20108;-68
2022/12/05 06:16:08;;;;;;;8.85;6.38;;;5.70;99.90;;;;;;4972711;28;20613;-68
2022/12/05 06:18:34;;;;;;;8.45;5.57;;;5.60;99.90;;;;;;4972998;28;20101;-68
2022/12/05 06:21:02;;;;;;;7.85;5.60;;;5.60;99.90;;;;;;4969419;28;20121;-67
2022/12/05 06:23:28;;;;;;;8.00;5.65;;;5.60;99.90;;;;;;4973007;28;20458;-67
2022/12/05 06:25:55;;;;;;;8.93;5.72;;;5.60;99.90;;;;;;4987686;28;20039;-67
2022/12/05 06:28:23;;;;;;;8.13;5.35;;;5.70;99.90;;;;;;4973676;28;20137;-67
2022/12/05 06:30:48;;;;;;;6.72;4.68;;;5.70;99.90;;;;;;4973655;28;20042;-67
2022/12/05 06:33:15;;;;;;;8.20;5.03;;;5.70;99.90;;;;;;4988728;28;20053;-68
2022/12/05 06:35:44;;;;;;;8.02;5.45;;;5.70;99.90;;;;;;4946763;28;20039;-68
2022/12/05 06:38:10;;;;;;;7.55;5.35;;;5.60;99.90;;;;;;4956267;28;20074;-67
2022/12/05 06:40:43;;;;;;;7.40;6.07;;;6.00;99.90;;;;;;4953280;28;20078;-68
2022/12/05 06:43:09;;;;;;;7.00;5.80;;;5.80;99.90;;;;;;4968463;28;20153;-68
2022/12/05 06:45:38;;;;;;;6.40;4.53;;;5.80;99.90;;;;;;4940469;28;20043;-67
2022/12/05 06:48:04;;;;;;;6.35;5.75;;;5.80;99.90;;;;;;4966451;28;20070;-67
2022/12/05 06:50:30;;;;;;;7.85;4.53;;;5.80;99.90;;;;;;4976129;28;20049;-66
2022/12/05 06:52:55;;;;;;;7.18;5.13;;;5.70;99.90;;;;;;4975287;28;20050;-68
2022/12/05 06:55:21;;;;;;;7.75;6.68;;;5.80;99.90;;;;;;4959639;28;20348;-67
2022/12/05 06:57:46;;;;;;;8.73;5.63;;;5.80;99.90;;;;;;4975260;28;20034;-69
2022/12/05 07:02:57;;;;;;;8.27;5.97;;;5.70;99.90;;;;;;4960198;28;20041;-66
2022/12/05 07:05:24;;;;;;;6.72;5.28;;;5.70;99.90;;;;;;4940316;28;20399;-68
2022/12/05 07:07:49;;;;;;;7.57;5.15;;;5.70;99.90;;;;;;4944341;28;20049;-68
2022/12/05 07:10:15;;;;;;;8.32;5.75;;;5.80;99.90;;;;;;4973865;28;20042;-67
2022/12/05 07:12:41;;;;;;;6.85;5.22;;;5.80;99.90;;;;;;4975468;28;20035;-67
2022/12/05 07:15:07;;;;;;;7.90;6.30;;;5.90;99.90;;;;;;4978578;28;20130;-65
2022/12/05 07:17:36;;;;;;;8.02;5.57;;;5.80;99.90;;;;;;4976706;28;20050;-65
2022/12/05 07:20:03;;;;;;;6.68;5.07;;;5.90;99.90;;;;;;4980570;28;20097;-66
2022/12/05 07:22:29;;;;;;;8.55;4.50;;;5.80;99.90;;;;;;4959330;28;20046;-66
2022/12/05 07:24:54;;;;;;;7.15;5.68;;;5.80;99.90;;;;;;4991237;28;20046;-65
2022/12/05 07:27:20;;;;;;;8.02;5.70;;;5.90;99.90;;;;;;4991467;28;20034;-65
2022/12/05 07:29:45;;;;;;;6.65;5.53;;;5.90;99.90;;;;;;4988417;28;20078;-66
2022/12/05 07:32:11;;;;;;;6.57;4.80;;;6.00;99.90;;;;;;4996274;28;20408;-67
2022/12/05 07:34:37;;;;;;;5.63;3.55;;;6.00;99.90;;;;;;4979189;28;20387;-66
2022/12/05 07:37:03;;;;;;;6.53;4.93;;;5.90;99.90;;;;;;4955016;28;20065;-67
2022/12/05 07:39:30;;;;;;;5.72;4.45;;;5.90;99.90;;;;;;4976159;28;20047;-66
2022/12/05 07:41:56;;;;;;;4.72;3.30;;;6.00;99.90;;;;;;4975794;28;20410;-67
2022/12/05 07:44:23;;;;;;;6.00;4.57;;;5.90;99.90;;;;;;4990192;28;20129;-68
2022/12/05 07:46:48;;;;;;;5.75;3.90;;;5.90;99.90;;;;;;4959302;28;20062;-66
2022/12/05 07:49:15;;;;;;;5.65;3.25;;;5.90;99.90;;;;;;4974995;28;20042;-66
2022/12/05 07:51:46;;;;;;;5.85;4.47;;;5.90;99.90;;;;;;4978952;28;20041;-66
2022/12/05 07:54:12;;;;;;;6.65;4.35;;;5.80;99.90;;;;;;4975462;28;20122;-67
2022/12/05 07:56:37;;;;;;;6.20;3.67;;;5.80;99.90;;;;;;4955508;28;20130;-66
2022/12/05 07:59:03;;;;;;;6.53;3.60;;;5.80;99.90;;;;;;4972168;28;20030;-67
2022/12/05 08:01:29;;;;;;;5.78;3.30;;;5.70;99.90;;;;;;4977959;28;20052;-66
2022/12/05 08:03:57;;;;;;;5.72;4.70;;;5.80;99.90;;;;;;4977944;28;20037;-66
2022/12/05 08:06:25;;;;;;;6.30;3.53;;;5.80;99.90;;;;;;4978257;28;20038;-65
2022/12/05 08:08:52;;;;;;;5.47;4.35;;;5.80;99.90;;;;;;4977445;28;20117;-66
2022/12/05 08:11:23;;;;;;;5.70;4.07;;;5.90;99.90;;;;;;4967755;28;20070;-66
2022/12/05 08:13:49;;;;;;;6.70;4.00;;;5.80;99.90;;;;;;4976168;28;20132;-67
2022/12/05 08:16:18;;;;;;;5.15;3.15;;;5.80;99.90;;;;;;4978290;28;20053;-66
2022/12/05 08:18:44;;;;;;;5.38;4.03;;;5.80;99.90;;;;;;4977264;28;20057;-66
2022/12/05 08:21:15;;;;;;;6.95;4.85;;;5.90;99.90;;;;;;4978091;28;20042;-67
2022/12/05 08:23:42;;;;;;;6.50;4.05;;;5.90;99.90;;;;;;4977778;28;20047;-66
2022/12/05 08:26:09;;;;;;;7.22;5.15;;;5.90;99.90;;;;;;4973464;28;20866;-68
2022/12/05 08:28:35;;;;;;;8.52;5.22;;;5.90;99.90;;;;;;4960769;28;20046;-66
2022/12/05 08:31:06;;;;;;;7.53;4.43;;;6.00;99.90;;;;;;4949898;28;20480;-65
2022/12/05 08:33:32;;;;;;;7.50;5.57;;;6.00;99.90;;;;;;4973812;28;20312;-66
2022/12/05 08:36:00;;;;;;;7.00;4.65;;;6.00;99.90;;;;;;4994172;28;20081;-65
2022/12/05 08:38:26;;;;;;;10.02;4.95;;;6.00;99.90;;;;;;4966647;28;20057;-66
2022/12/05 08:40:51;;;;;;;8.48;3.70;;;6.00;99.90;;;;;;4993619;28;20057;-66
2022/12/05 08:43:17;;;;;;;7.95;5.13;;;6.00;99.90;;;;;;4960737;28;20033;-66
2022/12/05 08:45:53;;;;;;;8.40;4.90;;;5.90;99.90;;;;;;4977355;28;20443;-68
2022/12/05 08:48:19;;;;;;;7.38;4.32;;;6.00;99.90;;;;;;4974601;28;20129;-66
2022/12/05 08:50:44;;;;;;;7.75;4.70;;;6.00;99.90;;;;;;4977910;28;20128;-66
2022/12/05 08:53:10;;;;;;;7.50;5.93;;;6.00;99.90;;;;;;4961086;28;20101;-66
2022/12/05 08:55:36;;;;;;;8.35;6.28;;;6.00;99.90;;;;;;4977302;28;20485;-67
2022/12/05 08:58:02;;;;;;;8.60;5.28;;;6.00;99.90;;;;;;4976424;28;20418;-67
2022/12/05 09:00:28;;;;;;;9.48;6.32;;;6.00;99.90;;;;;;4977011;28;20054;-67
2022/12/05 09:02:57;;;;;;;8.75;6.38;;;6.10;99.90;;;;;;4976707;28;20105;-67
2022/12/05 09:05:24;;;;;;;10.25;5.75;;;6.00;99.90;;;;;;4995152;28;20135;-67
2022/12/05 09:07:50;;;;;;;10.57;6.38;;;6.10;99.90;;;;;;4977090;28;20377;-67
2022/12/05 09:10:15;;;;;;;7.55;5.10;;;6.00;99.90;;;;;;4977214;28;20078;-67
2022/12/05 09:12:42;;;;;;;9.20;5.18;;;6.00;99.90;;;;;;4977337;28;20122;-66
2022/12/05 09:15:10;;;;;;;8.95;5.20;;;6.00;99.90;;;;;;4994628;28;20085;-66
2022/12/05 09:17:38;;;;;;;10.30;6.13;;;6.00;99.90;;;;;;4976628;28;20034;-69
2022/12/05 09:20:07;;;;;;;9.20;5.97;;;6.10;99.90;;;;;;4976690;28;20039;-66
2022/12/05 09:22:33;;;;;;;9.30;5.35;;;6.10;99.90;;;;;;4964638;28;20046;-66
2022/12/05 09:25:02;;;;;;;9.48;6.53;;;6.00;99.90;;;;;;4969449;28;20506;-66
2022/12/05 09:27:28;;;;;;;8.80;5.30;;;6.00;99.90;;;;;;4976718;28;20038;-67
2022/12/05 09:29:54;;;;;;;10.50;5.22;;;6.00;99.90;;;;;;4976350;28;20128;-66
2022/12/05 09:32:21;;;;;;;9.60;5.65;;;6.00;99.90;;;;;;4976411;28;20141;-66
2022/12/05 09:34:46;;;;;;;10.38;5.78;;;6.00;99.90;;;;;;4976769;28;20035;-66
2022/12/05 09:37:12;;;;;;;9.57;5.72;;;6.10;99.90;;;;;;4966239;28;20109;-67
2022/12/05 09:39:37;;;;;;;10.50;6.60;;;6.10;99.90;;;;;;4974673;28;20043;-66
2022/12/05 09:42:29;;;;;;;12.95;6.03;;;6.20;99.90;;;;;;4976813;28;20402;-67
2022/12/05 09:44:57;;;;;;;11.43;5.13;;;6.10;99.90;;;;;;4976782;28;20502;-66
2022/12/05 09:47:28;;;;;;;10.00;6.60;;;6.00;99.90;;;;;;4976249;28;20038;-69
2022/12/05 09:50:00;;;;;;;7.50;4.68;;;6.10;99.90;;;;;;4976643;28;20046;-67
2022/12/05 09:52:40;;;;;;;8.70;5.97;;;6.10;99.90;;;;;;4960418;28;20482;-67
2022/12/05 09:55:12;;;;;;;10.05;6.00;;;6.10;99.90;;;;;;4956461;28;20089;-66
2022/12/05 09:57:46;;;;;;;9.00;6.22;;;6.10;99.90;;;;;;4966568;28;20117;-67
2022/12/05 10:00:12;;;;;;;9.90;5.20;;;6.20;99.90;;;;;;4975438;28;20057;-68
2022/12/05 10:02:42;;;;;;;9.80;6.30;;;6.10;99.90;;;;;;4956038;28;20110;-68
2022/12/05 10:05:18;;;;;;;9.02;4.88;;;6.00;99.90;;;;;;4956231;28;20035;-66
2022/12/05 10:07:51;;;;;;;8.98;5.10;;;6.00;99.90;;;;;;4959199;28;20053;-69
2022/12/05 10:10:32;;;;;;;8.95;5.28;;;5.90;99.90;;;;;;4975856;28;20042;-66
2022/12/05 10:13:03;;;;;;;9.55;6.55;;;6.00;99.90;;;;;;4976243;28;20348;-67
2022/12/05 10:15:51;;;;;;;10.95;6.85;;;6.00;99.90;;;;;;4976420;28;20046;-68
2022/12/05 10:18:38;;;;;;;11.13;5.82;;;6.00;99.90;;;;;;4975376;28;20442;-67
2022/12/05 10:21:31;;;;;;;11.43;6.80;;;6.00;99.90;;;;;;4963713;28;20034;-66
2022/12/05 10:24:03;;;;;;;9.73;5.82;;;6.00;99.90;;;;;;4970397;28;20030;-66
2022/12/05 10:26:43;;;;;;;11.07;7.30;;;6.00;99.90;;;;;;5098691;27;20394;-67
2022/12/05 10:29:18;;;;;;;12.95;6.25;;;5.90;99.90;;;;;;5072613;28;20243;-66
2022/12/05 10:31:47;;;;;;;;;;;5.90;99.90;;;;;;5079264;28;20036;-68
2022/12/05 10:34:37;;;;;;;10.85;5.05;;;5.90;99.90;;;;;;5072681;28;19916;-68
2022/12/05 10:37:15;;;;;;;11.50;6.85;;;5.90;99.90;;;;;;5047854;28;20048;-66
2022/12/05 10:39:43;;;;;;;9.15;6.45;;;5.80;99.90;;;;;;5070975;28;20570;-66
2022/12/05 10:42:22;;;;;;;10.10;5.70;;;5.90;99.90;;;;;;5071998;28;20040;-67
2022/12/05 10:44:54;;;;;;;10.52;7.50;;;5.80;99.90;;;;;;5068942;28;20381;-66
2022/12/05 10:47:19;;;;;;;10.73;5.28;;;5.90;99.90;;;;;;5073738;28;20047;-66
2022/12/05 10:49:47;;;;;;;11.02;7.10;;;5.90;99.90;;;;;;5070075;28;20036;-66
2022/12/05 10:52:13;;;;;;;10.18;6.22;;;5.90;99.90;;;;;;5071294;28;20148;-66
2022/12/05 10:54:48;;;;;;;12.20;6.35;;;5.90;99.90;;;;;;5070872;28;20039;-67
2022/12/05 10:57:21;;;;;;;;;;;5.90;99.90;;;;;;5071170;28;20115;-67
2022/12/05 10:59:49;;;;;;;10.45;7.15;;;5.90;99.90;;;;;;5073268;28;20328;-66
2022/12/05 11:02:26;;;;;;;9.18;6.10;;;5.80;99.90;;;;;;5070419;28;20148;-67
2022/12/05 11:04:53;;;;;;;10.25;7.30;;;5.80;99.90;;;;;;5070250;28;20044;-66
2022/12/05 11:07:31;;;;;;;11.05;5.95;;;5.80;99.90;;;;;;5070578;28;20032;-66
2022/12/05 11:10:03;;;;;;;10.93;6.18;;;5.90;99.90;;;;;;5088357;28;20044;-66
2022/12/05 11:12:34;;;;;;;10.65;7.28;;;5.80;99.90;;;;;;5088266;28;20483;-65
2022/12/05 11:15:05;;;;;;;9.23;5.88;;;5.90;99.90;;;;;;5088597;28;20044;-67
2022/12/05 11:17:39;;;;;;;11.07;5.97;;;5.90;99.90;;;;;;5085793;28;20490;-67
2022/12/05 11:20:17;;;;;;;10.77;6.93;;;5.80;99.90;;;;;;5092473;28;20039;-67
2022/12/05 11:22:49;;;;;;;10.25;5.65;;;5.80;99.90;;;;;;5053487;28;20123;-67
2022/12/05 11:25:27;;;;;;;11.77;7.25;;;5.90;99.90;;;;;;5063783;28;20056;-66
2022/12/05 11:27:58;;;;;;;9.32;6.05;;;5.90;99.90;;;;;;5052667;28;20112;-66
2022/12/05 11:30:27;;;;;;;10.20;7.10;;;5.80;99.90;;;;;;5062919;28;20116;-65
2022/12/05 11:33:16;;;;;;;10.75;6.50;;;5.90;99.90;;;;;;5047649;28;20048;-66
2022/12/05 11:35:41;;;;;;;11.82;5.57;;;5.90;99.90;;;;;;5036292;28;20132;-66
2022/12/05 11:38:10;;;;;;;10.40;7.65;;;5.90;99.90;;;;;;5032056;28;20122;-66
2022/12/05 11:40:51;;;;;;;10.82;5.85;;;6.00;99.90;;;;;;5033313;28;20051;-66
2022/12/05 11:43:54;;;;;;;9.68;5.40;;;5.90;99.90;;;;;;5052815;28;20067;-68
2022/12/05 11:46:49;;;;;;;9.63;5.25;;;5.80;99.90;;;;;;5054341;28;20084;-66
2022/12/05 11:49:50;;;;;;;9.18;6.53;;;5.90;99.90;;;;;;5039462;28;20037;-67
2022/12/05 11:52:30;;;;;;;8.40;5.53;;;5.90;99.90;;;;;;5011417;28;20048;-68
2022/12/05 11:55:13;;;;;;;10.02;6.90;;;5.80;99.90;;;;;;5016389;28;20037;-67
2022/12/05 11:58:16;;;;;;;9.38;4.82;;;5.90;99.90;;;;;;5017010;28;20472;-68
2022/12/05 12:01:07;;;;;;;9.38;5.43;;;5.80;99.90;;;;;;5022410;28;20475;-68
2022/12/05 12:03:43;;;;;;;9.48;6.20;;;5.90;99.90;;;;;;5033727;28;20421;-67
2022/12/05 12:06:41;;;;;;;8.88;4.57;;;5.90;99.90;;;;;;5033249;28;20049;-68
2022/12/05 12:09:18;;;;;;;9.57;6.60;;;6.00;99.90;;;;;;5027103;28;20064;-67
2022/12/05 12:12:04;;;;;;;9.48;5.90;;;5.90;99.90;;;;;;5033633;28;20037;-68
2022/12/05 12:14:29;;;;;;;8.40;5.50;;;5.90;99.90;;;;;;5022935;28;20045;-67
2022/12/05 12:17:19;;;;;;;10.65;6.60;;;5.80;99.90;;;;;;5032788;28;20124;-67
2022/12/05 12:20:09;;;;;;;9.93;6.38;;;5.90;99.90;;;;;;5031758;28;20042;-68
2022/12/05 12:22:59;;;;;;;8.63;5.70;;;6.00;99.90;;;;;;5033063;28;20457;-67
2022/12/05 12:25:46;;;;;;;9.38;6.45;;;6.00;99.90;;;;;;5044363;28;20057;-68
2022/12/05 12:28:32;;;;;;;10.32;6.05;;;5.90;99.90;;;;;;5022788;28;20080;-68
2022/12/05 12:31:31;;;;;;;9.68;6.35;;;5.80;99.90;;;;;;5032427;28;20156;-67
2022/12/05 12:34:18;;;;;;;9.68;5.57;;;5.90;99.90;;;;;;5015670;28;20041;-67
2022/12/05 12:36:52;;;;;;;9.25;5.80;;;5.90;99.90;;;;;;5032165;28;20041;-67
2022/12/05 12:39:41;;;;;;;;;;;5.90;99.90;;;;;;5032591;28;20037;-67
2022/12/05 12:42:24;;;;;;;8.30;5.28;;;5.80;99.90;;;;;;4975447;28;20188;-67
2022/12/05 12:44:58;;;;;;;10.23;6.75;;;5.90;99.90;;;;;;5013811;28;20049;-66
2022/12/05 12:47:42;;;;;;;9.57;5.68;;;5.90;99.90;;;;;;5031884;28;20080;-67
2022/12/05 12:50:21;;;;;;;11.13;6.73;;;5.90;99.90;;;;;;5031150;28;20116;-67
2022/12/05 12:53:15;;;;;;;9.07;5.45;;;5.90;99.90;;;;;;5037849;28;20052;-67
2022/12/05 12:56:10;;;;;;;9.00;6.10;;;5.90;99.90;;;;;;5040915;28;20055;-67
2022/12/05 12:58:46;;;;;;;10.00;5.80;;;5.80;99.90;;;;;;5033178;28;20098;-67
2022/12/05 13:01:42;;;;;;;9.35;7.30;;;5.90;99.90;;;;;;5036929;28;20042;-68
2022/12/05 13:04:21;;;;;;;8.88;6.30;;;5.90;99.90;;;;;;5033336;28;20049;-68
2022/12/05 13:06:49;;;;;;;9.02;5.07;;;5.90;99.90;;;;;;5033330;28;20179;-68
2022/12/05 13:09:42;;;;;;;8.90;5.05;;;5.90;99.90;;;;;;5033449;28;20091;-68
2022/12/05 13:12:15;;;;;;;6.97;4.88;;;6.00;99.90;;;;;;5047118;28;20044;-67
2022/12/05 13:14:52;;;;;;;8.30;4.53;;;6.00;99.90;;;;;;5030170;28;20422;-68
2022/12/05 13:17:20;;;;;;;7.70;5.10;;;6.10;99.90;;;;;;5042888;28;20056;-67
2022/12/05 13:19:49;;;;;;;8.07;5.13;;;6.00;99.90;;;;;;5042318;28;20068;-67
2022/12/05 13:22:16;;;;;;;8.15;5.25;;;5.90;99.90;;;;;;5045671;28;20037;-67
2022/12/05 13:24:42;;;;;;;9.02;5.90;;;6.00;99.90;;;;;;5046188;28;20041;-68